Ford, Virginia
Current Conditions -  °F | °C
As of 9:55 PM on Sunday 23 Nov 2014 (Local Time) from KBKT Reporting Station
Overcast Overcast  
Wind Chill: 57°   Ceiling: 300
Heat Index: 57°   Visibility: 4mi
Dew Point: 56°   Wind: 14mph
Humidity: 98%   Direction: 130°SE
Pressure: 29.85"   Gusts: 21mph
Location:  37.15°N, 77.75°W
Report Text: KBKT 240255Z AUTO 13012G18KT 4SM OVC003 14/14 A2985 RMK AO1 P0011 60017 T01380135
Loading
Personal Weather Stations






























Interactive Weather Map New forecast layout! Learn more

10-Day Weather Forecast

Advertisements
Track Severe Weather on mobile